Time;durP1;ratioP1;P1;durP2;ratioP2;P2;SDS_P1;SDS_P2;PMS_P1;PMS_P2;Temp;Humidity;BMP_temperature;BMP_pressure;BME280_temperature;BME280_humidity;BME280_pressure;Samples;Min_cycle;Max_cycle;Signal;HPM_P1;HPM_P2
2024/03/26 06:06:30;;;;;;;;;;;;;;;3.51;100.00;99430.78;1853327;76;20100;-68
2024/03/26 06:08:57;;;;;;;;;;;;;;;3.51;100.00;99441.92;1812232;77;20117;-68
2024/03/26 06:11:25;;;;;;;;;;;;;;;3.57;100.00;99440.86;1825655;77;20098;-69
2024/03/26 06:13:52;;;;;;;;;;;;;;;3.59;100.00;99441.64;1793612;78;20407;-69
2024/03/26 06:16:19;;;;;;;;;;;;;;;3.65;100.00;99445.25;1816315;77;20193;-74
2024/03/26 06:18:48;;;;;;;;;;;;;;;3.71;100.00;99442.45;1819371;77;20092;-71
2024/03/26 06:21:15;;;;;;;;;;;;;;;3.79;100.00;99445.58;1818859;77;20126;-71
2024/03/26 06:23:47;;;;;;;;;;;;;;;3.85;100.00;99447.92;1814558;77;20152;-72
2024/03/26 06:26:18;;;;;;;;;;;;;;;3.89;100.00;99444.78;1825673;77;20107;-70
2024/03/26 06:28:45;;;;;;;;;;;;;;;3.91;100.00;99454.13;1824316;78;20109;-72
2024/03/26 06:31:12;;;;;;;;;;;;;;;3.94;100.00;99454.02;1796197;77;20419;-68
2024/03/26 06:33:38;;;;;;;;;;;;;;;3.99;100.00;99453.84;1814078;77;20130;-73
2024/03/26 06:36:08;;;;;;;;;;;;;;;4.04;100.00;99463.49;1832330;77;20118;-75
2024/03/26 06:38:34;;;;;;;;;;;;;;;4.06;100.00;99459.56;1820085;77;20121;-71
2024/03/26 06:41:03;;;;;;;;;;;;;;;4.13;100.00;99458.44;1831350;78;20101;-72
2024/03/26 06:43:30;;;;;;;;;;;;;;;4.21;100.00;99467.55;1824959;78;20110;-72
2024/03/26 06:45:57;;;;;;;;;;;;;;;4.25;100.00;99472.98;1819204;78;20149;-69
2024/03/26 06:48:26;;;;;;;;;;;;;;;4.28;100.00;99473.31;1813991;78;20098;-72
2024/03/26 06:50:52;;;;;;;;;;;;;;;4.35;100.00;99476.04;1811891;78;20128;-71
2024/03/26 06:53:19;;;;;;;;;;;;;;;4.46;100.00;99484.16;1803809;78;20142;-71
2024/03/26 06:55:48;;;;;;;;;;;;;;;4.50;100.00;99484.88;1812330;77;20130;-72
2024/03/26 06:58:14;;;;;;;;;;;;;;;4.53;100.00;99482.17;1814528;78;20125;-72
2024/03/26 07:00:42;;;;;;;;;;;;;;;4.57;100.00;99480.70;1822675;78;20087;-70
2024/03/26 07:03:09;;;;;;;;;;;;;;;4.57;100.00;99489.73;1825412;78;20096;-71
2024/03/26 07:05:36;;;;;;;;;;;;;;;4.60;100.00;99488.32;1813492;78;20129;-71
2024/03/26 07:08:03;;;;;;;;;;;;;;;4.63;100.00;99493.36;1805414;79;20161;-70
2024/03/26 07:10:31;;;;;;;;;;;;;;;4.68;100.00;99491.88;1810671;77;20190;-69
2024/03/26 07:12:57;;;;;;;;;;;;;;;4.68;100.00;99494.02;1811567;77;20106;-72
2024/03/26 07:15:24;;;;;;;;;;;;;;;4.71;100.00;99496.08;1817852;78;20118;-76
2024/03/26 07:17:50;;;;;;;;;;;;;;;4.73;100.00;99503.30;1802303;79;20103;-72
2024/03/26 07:20:19;;;;;;;;;;;;;;;4.73;100.00;99505.43;1804213;78;20153;-74
2024/03/26 07:22:47;;;;;;;;;;;;;;;4.74;100.00;99508.85;1808752;78;20139;-71
2024/03/26 07:25:15;;;;;;;;;;;;;;;4.78;100.00;99507.83;1812979;77;20090;-73
2024/03/26 07:27:42;;;;;;;;;;;;;;;4.84;100.00;99507.55;1787716;77;20094;-72
2024/03/26 07:30:11;;;;;;;;;;;;;;;4.88;100.00;99500.08;1814631;78;20091;-71
2024/03/26 07:32:39;;;;;;;;;;;;;;;4.91;100.00;99508.98;1805279;77;20109;-71
2024/03/26 07:35:08;;;;;;;;;;;;;;;4.92;100.00;99519.23;1807259;78;20131;-72
2024/03/26 07:37:34;;;;;;;;;;;;;;;4.91;100.00;99512.40;1799603;78;20394;-75
2024/03/26 07:40:01;;;;;;;;;;;;;;;4.92;100.00;99527.42;1816452;78;20129;-70
2024/03/26 07:42:32;;;;;;;;;;;;;;;4.92;100.00;99524.39;1812337;79;20393;-76
2024/03/26 07:44:59;;;;;;;;;;;;;;;4.92;100.00;99526.98;1773712;79;20180;-75
2024/03/26 07:47:25;;;;;;;;;;;;;;;4.86;100.00;99522.06;1810632;77;20113;-71
2024/03/26 07:49:52;;;;;;;;;;;;;;;4.87;100.00;99525.03;1813367;78;20101;-73
2024/03/26 07:52:18;;;;;;;;;;;;;;;4.90;100.00;99527.94;1807166;78;20098;-71
2024/03/26 07:54:44;;;;;;;;;;;;;;;4.95;100.00;99532.46;1817774;78;20148;-71
2024/03/26 07:57:11;;;;;;;;;;;;;;;4.99;100.00;99532.27;1821001;78;20118;-72
2024/03/26 07:59:37;;;;;;;;;;;;;;;5.03;100.00;99521.37;1811762;77;20106;-71
2024/03/26 08:02:04;;;;;;;;;;;;;;;5.12;100.00;99529.20;1813791;78;20161;-76
2024/03/26 08:04:31;;;;;;;;;;;;;;;5.21;100.00;99536.52;1812880;77;20157;-69
2024/03/26 08:06:57;;;;;;;;;;;;;;;5.27;100.00;99528.08;1818496;77;20279;-73
2024/03/26 08:09:25;;;;;;;;;;;;;;;5.36;100.00;99528.14;1805917;77;20116;-70
2024/03/26 08:11:52;;;;;;;;;;;;;;;5.41;100.00;99530.53;1810900;77;20095;-74
2024/03/26 08:14:21;;;;;;;;;;;;;;;5.42;100.00;99518.84;1774309;79;20102;-70
2024/03/26 08:16:48;;;;;;;;;;;;;;;5.47;100.00;99528.98;1813149;79;20141;-70
2024/03/26 08:19:16;;;;;;;;;;;;;;;5.49;100.00;99523.30;1810596;79;20098;-71
2024/03/26 08:21:46;;;;;;;;;;;;;;;5.49;100.00;99521.55;1801258;79;20138;-71
2024/03/26 08:24:12;;;;;;;;;;;;;;;5.53;100.00;99519.67;1777411;80;20119;-74
2024/03/26 08:26:39;;;;;;;;;;;;;;;5.62;100.00;99530.87;1809828;78;20098;-68
2024/03/26 08:29:08;;;;;;;;;;;;;;;5.75;100.00;99530.72;1820528;79;20122;-69
2024/03/26 08:31:34;;;;;;;;;;;;;;;5.85;100.00;99536.33;1821072;79;20420;-69
2024/03/26 08:34:02;;;;;;;;;;;;;;;5.89;100.00;99543.91;1813607;77;20149;-69
2024/03/26 08:36:28;;;;;;;;;;;;;;;5.89;100.00;99550.36;1808215;77;20569;-68
2024/03/26 08:38:55;;;;;;;;;;;;;;;5.92;100.00;99550.23;1808662;77;20106;-70
2024/03/26 08:41:21;;;;;;;;;;;;;;;5.93;100.00;99539.44;1815618;78;20141;-72
2024/03/26 08:43:47;;;;;;;;;;;;;;;6.05;100.00;99547.91;1824302;78;20114;-70
2024/03/26 08:46:15;;;;;;;;;;;;;;;6.18;100.00;99545.61;1820693;79;20099;-70
2024/03/26 08:48:41;;;;;;;;;;;;;;;6.24;100.00;99543.59;1811605;77;20105;-70
2024/03/26 08:51:10;;;;;;;;;;;;;;;6.27;100.00;99548.62;1815205;79;20360;-71
2024/03/26 08:53:41;;;;;;;;;;;;;;;6.25;100.00;99549.59;1826338;78;20144;-70
2024/03/26 08:56:05;;;;;;;;;;;;;;;6.30;100.00;99559.27;1801657;78;20103;-71
2024/03/26 08:58:33;;;;;;;;;;;;;;;6.30;100.00;99548.48;1775395;80;20102;-69
2024/03/26 09:00:59;;;;;;;;;;;;;;;6.34;100.00;99556.48;1814478;78;20107;-70
2024/03/26 09:03:26;;;;;;;;;;;;;;;6.37;100.00;99562.42;1810968;78;20243;-68
2024/03/26 09:05:53;;;;;;;;;;;;;;;6.44;100.00;99562.48;1803470;79;20385;-69
2024/03/26 09:08:20;;;;;;;;;;;;;;;6.46;100.00;99553.75;1804970;79;20370;-71
2024/03/26 09:10:46;;;;;;;;;;;;;;;6.52;100.00;99564.27;1813150;79;20119;-71
2024/03/26 09:13:14;;;;;;;;;;;;;;;6.65;100.00;99561.50;1825208;79;20164;-71
2024/03/26 09:15:43;;;;;;;;;;;;;;;6.74;100.00;99563.65;1782330;79;20141;-69
2024/03/26 09:18:10;;;;;;;;;;;;;;;6.82;100.00;99564.55;1813056;79;20092;-70
2024/03/26 09:20:38;;;;;;;;;;;;;;;6.88;100.00;99568.98;1815415;79;20094;-71
2024/03/26 09:23:08;;;;;;;;;;;;;;;6.91;100.00;99572.71;1814257;79;20130;-69
2024/03/26 09:25:34;;;;;;;;;;;;;;;6.94;100.00;99567.84;1816558;79;20146;-73
2024/03/26 09:28:00;;;;;;;;;;;;;;;6.96;100.00;99576.38;1805608;79;20247;-74
2024/03/26 09:30:30;;;;;;;;;;;;;;;7.00;100.00;99574.02;1820666;79;20127;-71
2024/03/26 09:33:00;;;;;;;;;;;;;;;7.09;100.00;99579.22;1824825;79;20430;-69
2024/03/26 09:35:26;;;;;;;;;;;;;;;7.14;100.00;99581.13;1804778;79;20149;-70
2024/03/26 09:37:52;;;;;;;;;;;;;;;7.14;100.00;99585.01;1814615;79;20103;-73
2024/03/26 09:40:19;;;;;;;;;;;;;;;7.13;100.00;99578.16;1808166;79;20169;-72
2024/03/26 09:42:45;;;;;;;;;;;;;;;7.14;100.00;99587.14;1810695;79;20123;-75
2024/03/26 09:45:15;;;;;;;;;;;;;;;7.14;100.00;99592.31;1813024;79;20397;-72
2024/03/26 09:47:41;;;;;;;;;;;;;;;7.14;100.00;99595.36;1818824;79;20129;-72
2024/03/26 09:50:14;;;;;;;;;;;;;;;7.11;100.00;99594.22;1822096;79;20128;-75
2024/03/26 09:52:47;;;;;;;;;;;;;;;7.05;100.00;99603.57;1810380;79;20127;-74
2024/03/26 09:55:15;;;;;;;;;;;;;;;7.00;100.00;99607.22;1815996;79;20113;-72
2024/03/26 09:57:42;;;;;;;;;;;;;;;6.99;100.00;99613.76;1807440;79;20179;-68
2024/03/26 10:00:11;;;;;;;;;;;;;;;6.97;100.00;99610.41;1795250;79;20132;-73
2024/03/26 10:02:44;;;;;;;;;;;;;;;6.96;100.00;99616.04;1794906;79;20142;-72
2024/03/26 10:05:16;;;;;;;;;;;;;;;7.03;100.00;99614.00;1814953;79;20116;-75
2024/03/26 10:07:44;;;;;;;;;;;;;;;7.08;100.00;99617.66;1779709;80;20101;-74
2024/03/26 10:10:11;;;;;;;;;;;;;;;7.14;100.00;99615.62;1790129;80;20418;-70
2024/03/26 10:12:40;;;;;;;;;;;;;;;7.23;100.00;99619.03;1772742;79;20092;-72
2024/03/26 10:15:09;;;;;;;;;;;;;;;7.33;100.00;99617.67;1790783;80;20159;-72
2024/03/26 10:17:36;;;;;;;;;;;;;;;7.43;100.00;99624.99;1763657;80;20175;-73
2024/03/26 10:20:08;;;;;;;;;;;;;;;7.47;100.00;99625.22;1783501;80;20121;-71
2024/03/26 10:22:34;;;;;;;;;;;;;;;7.54;100.00;99627.89;1775884;79;20134;-70
2024/03/26 10:25:00;;;;;;;;;;;;;;;7.68;100.00;99621.53;1772639;80;20091;-70
2024/03/26 10:27:26;;;;;;;;;;;;;;;7.78;100.00;99621.91;1785757;80;20184;-72
2024/03/26 10:29:53;;;;;;;;;;;;;;;7.87;100.00;99630.06;1755913;80;20124;-71
2024/03/26 10:32:23;;;;;;;;;;;;;;;7.89;100.00;99627.39;1788962;79;20140;-72
2024/03/26 10:34:58;;;;;;;;;;;;;;;7.82;100.00;99616.49;1776136;80;20128;-70
2024/03/26 10:37:25;;;;;;;;;;;;;;;7.80;100.00;99622.21;1779056;80;20099;-74
2024/03/26 10:39:53;;;;;;;;;;;;;;;7.80;100.00;99618.78;1788924;80;20096;-74
2024/03/26 10:42:20;;;;;;;;;;;;;;;7.77;100.00;99617.64;1777586;80;20136;-73
2024/03/26 10:44:47;;;;;;;;;;;;;;;7.82;100.00;99618.25;1793544;80;20526;-73
2024/03/26 10:47:21;;;;;;;;;;;;;;;7.89;100.00;99620.45;1786847;80;20093;-78
2024/03/26 10:50:02;;;;;;;;;;;;;;;7.91;100.00;99618.62;1774605;79;20135;-80
2024/03/26 10:52:29;;;;;;;;;;;;;;;7.96;100.00;99619.68;1776921;80;20135;-76
2024/03/26 10:54:57;;;;;;;;;;;;;;;8.02;100.00;99611.55;1763479;79;20426;-75
2024/03/26 10:57:23;;;;;;;;;;;;;;;8.07;100.00;99621.23;1781560;79;20437;-73
2024/03/26 10:59:50;;;;;;;;;;;;;;;8.15;100.00;99611.75;1759974;80;20379;-75
2024/03/26 11:02:18;;;;;;;;;;;;;;;8.21;100.00;99611.44;1779736;78;20182;-73
2024/03/26 11:04:46;;;;;;;;;;;;;;;8.32;100.00;99619.06;1766344;80;20241;-71
2024/03/26 11:07:13;;;;;;;;;;;;;;;8.34;100.00;99611.20;1798012;78;20126;-73
2024/03/26 11:09:40;;;;;;;;;;;;;;;8.30;100.00;99618.73;1812395;78;20131;-72
2024/03/26 11:12:12;;;;;;;;;;;;;;;8.28;100.00;99611.48;1813357;78;20137;-69
2024/03/26 11:14:41;;;;;;;;;;;;;;;8.30;100.00;99618.73;1812647;79;20130;-74
2024/03/26 11:17:12;;;;;;;;;;;;;;;8.33;100.00;99616.01;1822463;79;20397;-68
2024/03/26 11:19:39;;;;;;;;;;;;;;;8.37;100.00;99628.36;1800353;79;20109;-67
2024/03/26 11:22:06;;;;;;;;;;;;;;;8.34;100.00;99618.52;1815127;79;20094;-70
2024/03/26 11:24:34;;;;;;;;;;;;;;;8.35;100.00;99625.39;1824162;79;20173;-72
2024/03/26 11:27:05;;;;;;;;;;;;;;;8.39;100.00;99623.92;1825776;79;20162;-68
2024/03/26 11:29:32;;;;;;;;;;;;;;;8.42;100.00;99628.92;1815768;79;20394;-67
2024/03/26 11:31:59;;;;;;;;;;;;;;;8.43;100.00;99634.03;1818898;79;20133;-68
2024/03/26 11:34:26;;;;;;;;;;;;;;;8.39;100.00;99623.47;1813087;79;20133;-71
2024/03/26 11:36:53;;;;;;;;;;;;;;;8.35;100.00;99629.73;1812358;79;20122;-72
2024/03/26 11:39:23;;;;;;;;;;;;;;;8.34;100.00;99626.77;1811956;79;20122;-71
2024/03/26 11:41:55;;;;;;;;;;;;;;;8.37;100.00;99638.28;1780383;80;20414;-74
2024/03/26 11:44:21;;;;;;;;;;;;;;;8.42;100.00;99635.41;1725843;82;20114;-70
2024/03/26 11:46:48;;;;;;;;;;;;;;;8.44;100.00;99636.16;1736090;81;20135;-67
2024/03/26 11:49:15;;;;;;;;;;;;;;;8.45;100.00;99639.13;1748480;81;20132;-68
2024/03/26 11:51:42;;;;;;;;;;;;;;;8.47;100.00;99638.13;1734878;81;20170;-68
2024/03/26 11:54:08;;;;;;;;;;;;;;;8.52;100.00;99635.30;1753102;81;20125;-67
2024/03/26 11:56:34;;;;;;;;;;;;;;;8.54;100.00;99630.41;1742420;81;20112;-67
2024/03/26 11:59:02;;;;;;;;;;;;;;;8.54;100.00;99633.45;1751037;82;20130;-68
2024/03/26 12:01:29;;;;;;;;;;;;;;;8.56;100.00;99631.16;1743980;82;20376;-68
2024/03/26 12:03:57;;;;;;;;;;;;;;;8.58;100.00;99641.45;1757443;81;20133;-67
2024/03/26 12:06:24;;;;;;;;;;;;;;;8.62;100.00;99652.05;1760248;81;20109;-71
2024/03/26 12:08:52;;;;;;;;;;;;;;;8.71;100.00;99640.34;1756605;81;20194;-67
2024/03/26 12:11:20;;;;;;;;;;;;;;;8.77;100.00;99642.60;1754946;81;20426;-74
2024/03/26 12:13:47;;;;;;;;;;;;;;;8.81;100.00;99641.02;1744936;81;20174;-69
2024/03/26 12:16:25;;;;;;;;;;;;;;;8.85;100.00;99639.94;1750263;81;20096;-68
2024/03/26 12:18:53;;;;;;;;;;;;;;;8.87;100.00;99641.98;1752558;81;20872;-71
2024/03/26 12:21:21;;;;;;;;;;;;;;;8.89;100.00;99646.64;1756410;81;20133;-69
2024/03/26 12:23:51;;;;;;;;;;;;;;;8.92;100.00;99639.98;1745991;81;20441;-69
2024/03/26 12:26:23;;;;;;;;;;;;;;;8.96;100.00;99647.14;1754052;80;20393;-67
2024/03/26 12:28:50;;;;;;;;;;;;;;;9.00;100.00;99640.39;1773367;80;20102;-70
2024/03/26 12:31:17;;;;;;;;;;;;;;;9.05;100.00;99640.59;1756980;81;20158;-72
2024/03/26 12:33:45;;;;;;;;;;;;;;;9.08;100.00;99643.86;1762423;81;20131;-70
2024/03/26 12:36:11;;;;;;;;;;;;;;;9.11;100.00;99641.09;1753830;81;20127;-72
2024/03/26 12:38:46;;;;;;;;;;;;;;;9.15;100.00;99643.06;1755551;81;20140;-76
2024/03/26 12:41:15;;;;;;;;;;;;;;;9.22;100.00;99646.96;1754304;80;20485;-70
2024/03/26 12:43:41;;;;;;;;;;;;;;;9.29;100.00;99649.13;1749021;81;20897;-70
2024/03/26 12:46:07;;;;;;;;;;;;;;;9.31;100.00;99647.74;1749034;81;20122;-71
2024/03/26 12:48:37;;;;;;;;;;;;;;;9.32;100.00;99642.92;1759084;81;20174;-70
2024/03/26 12:51:16;;;;;;;;;;;;;;;9.36;100.00;99649.63;1767093;80;20401;-78
2024/03/26 12:54:07;;;;;;;;;;;;;;;9.34;100.00;99658.80;1687139;83;20130;-73
2024/03/26 12:56:36;;;;;;;;;;;;;;;9.32;100.00;99659.81;1712813;82;20406;-71
2024/03/26 12:59:05;;;;;;;;;;;;;;;9.31;100.00;99665.93;1705422;82;20104;-72
2024/03/26 13:01:40;;;;;;;;;;;;;;;9.28;100.00;99669.53;1702249;82;20127;-76
2024/03/26 13:04:06;;;;;;;;;;;;;;;9.23;100.00;99678.52;1729187;82;20451;-73
2024/03/26 13:06:34;;;;;;;;;;;;;;;9.23;100.00;99673.31;1723674;81;20233;-75
2024/03/26 13:09:00;;;;;;;;;;;;;;;9.22;100.00;99667.28;1717075;82;20133;-69
2024/03/26 13:11:26;;;;;;;;;;;;;;;9.22;100.00;99672.94;1692108;83;20160;-68
2024/03/26 13:13:53;;;;;;;;;;;;;;;9.21;100.00;99673.86;1730109;82;20103;-73
2024/03/26 13:16:24;;;;;;;;;;;;;;;9.18;100.00;99667.11;1707921;82;20136;-72
2024/03/26 13:19:01;;;;;;;;;;;;;;;9.19;100.00;99675.28;1731830;82;20165;-77
2024/03/26 13:21:29;;;;;;;;;;;;;;;9.20;100.00;99670.42;1712272;82;20473;-69
2024/03/26 13:24:12;;;;;;;;;;;;;;;9.21;100.00;99673.86;1710164;83;20106;-73
2024/03/26 13:26:49;;;;;;;;;;;;;;;9.20;100.00;99671.73;1686609;83;20099;-74
2024/03/26 13:29:23;;;;;;;;;;;;;;;9.21;100.00;99677.30;1660180;82;20100;-74
2024/03/26 13:31:50;;;;;;;;;;;;;;;9.19;100.00;99680.47;1767090;79;20426;-73
2024/03/26 13:34:16;;;;;;;;;;;;;;;9.17;100.00;99684.08;1760566;79;20246;-72
2024/03/26 13:36:43;;;;;;;;;;;;;;;9.16;100.00;99689.73;1772627;79;20177;-71
2024/03/26 13:39:11;;;;;;;;;;;;;;;9.17;100.00;99690.57;1795794;77;20145;-73
2024/03/26 13:41:39;;;;;;;;;;;;;;;9.18;100.00;99687.05;1789671;77;20150;-72
2024/03/26 13:44:07;;;;;;;;;;;;;;;9.15;100.00;99681.56;1792035;77;20126;-72
2024/03/26 13:46:35;;;;;;;;;;;;;;;9.13;100.00;99683.41;1770696;80;20387;-72
2024/03/26 13:49:02;;;;;;;;;;;;;;;9.17;100.00;99695.77;1742774;81;20611;-74
2024/03/26 13:51:29;;;;;;;;;;;;;;;9.17;100.00;99687.97;1757325;81;20099;-70
2024/03/26 13:53:55;;;;;;;;;;;;;;;9.17;100.00;99693.17;1751507;81;20139;-71
2024/03/26 13:56:24;;;;;;;;;;;;;;;9.19;100.00;99698.66;1750253;81;20103;-72
2024/03/26 13:58:53;;;;;;;;;;;;;;;9.20;100.00;99697.70;1763376;81;20098;-71
2024/03/26 14:01:19;;;;;;;;;;;;;;;9.22;100.00;99696.31;1763126;80;20147;-72
2024/03/26 14:03:46;;;;;;;;;;;;;;;9.26;100.00;99703.86;1715722;81;20172;-71
2024/03/26 14:06:19;;;;;;;;;;;;;;;9.31;100.00;99695.34;1770988;80;20097;-72
2024/03/26 14:08:48;;;;;;;;;;;;;;;9.30;100.00;99701.93;1757156;81;20115;-73
2024/03/26 14:11:16;;;;;;;;;;;;;;;9.28;100.00;99693.38;1759541;81;20111;-70
2024/03/26 14:13:47;;;;;;;;;;;;;;;9.23;100.00;99701.43;1754473;81;20422;-73
2024/03/26 14:16:13;;;;;;;;;;;;;;;9.15;100.00;99695.02;1758894;81;20877;-69
2024/03/26 14:18:39;;;;;;;;;;;;;;;9.06;100.00;99691.16;1757947;81;20178;-70
2024/03/26 14:21:08;;;;;;;;;;;;;;;8.97;100.00;99696.86;1763992;81;20157;-69
2024/03/26 14:23:35;;;;;;;;;;;;;;;8.91;100.00;99698.02;1745429;81;20132;-72
2024/03/26 14:26:03;;;;;;;;;;;;;;;8.87;100.00;99708.66;1762381;81;20198;-72
2024/03/26 14:28:29;;;;;;;;;;;;;;;8.81;100.00;99698.59;1756763;81;20119;-70
2024/03/26 14:30:57;;;;;;;;;;;;;;;8.74;100.00;99698.13;1755041;81;20138;-75
2024/03/26 14:33:27;;;;;;;;;;;;;;;8.65;100.00;99705.94;1762494;81;20122;-75
2024/03/26 14:35:58;;;;;;;;;;;;;;;8.56;100.00;99705.12;1752354;81;20094;-73
2024/03/26 14:38:34;;;;;;;;;;;;;;;8.49;100.00;99709.41;1750473;81;20114;-72
2024/03/26 14:41:07;;;;;;;;;;;;;;;8.42;100.00;99713.24;1732037;82;20409;-73
2024/03/26 14:43:33;;;;;;;;;;;;;;;8.34;100.00;99706.72;1759630;81;20093;-70
2024/03/26 14:46:02;;;;;;;;;;;;;;;8.32;100.00;99710.28;1755178;81;20120;-71
2024/03/26 14:48:28;;;;;;;;;;;;;;;8.28;100.00;99719.14;1748726;81;20164;-72
2024/03/26 14:50:58;;;;;;;;;;;;;;;8.21;100.00;99714.72;1751366;81;20142;-72
2024/03/26 14:53:24;;;;;;;;;;;;;;;8.16;100.00;99719.76;1748820;81;20121;-71
2024/03/26 14:55:52;;;;;;;;;;;;;;;8.11;100.00;99722.58;1728987;81;20114;-73
2024/03/26 14:58:22;;;;;;;;;;;;;;;8.08;100.00;99725.79;1720676;81;20111;-70
2024/03/26 15:00:52;;;;;;;;;;;;;;;8.05;100.00;99726.78;1751202;81;20105;-69
2024/03/26 15:03:20;;;;;;;;;;;;;;;8.06;100.00;99725.03;1750475;81;20165;-71
